createdAt,value
2018-12-21T00:00:28.368Z,88.92
2018-12-21T00:05:33.360Z,88.74
2018-12-21T00:10:38.244Z,88.68
2018-12-21T00:15:43.074Z,88.63
2018-12-21T00:20:47.878Z,88.93
2018-12-21T00:25:52.769Z,89.06
2018-12-21T00:31:01.665Z,89.22
2018-12-21T00:36:10.524Z,89.30
2018-12-21T00:41:15.034Z,89.34
2018-12-21T00:46:21.849Z,89.15
2018-12-21T00:51:30.339Z,89.37
2018-12-21T00:56:33.729Z,89.15
2018-12-21T01:01:38.689Z,89.38
2018-12-21T01:06:43.541Z,89.34
2018-12-21T01:11:48.408Z,89.36
2018-12-21T01:16:53.154Z,89.30
2018-12-21T01:21:57.919Z,89.30
2018-12-21T01:27:12.319Z,89.40
2018-12-21T01:32:17.483Z,89.49
2018-12-21T01:37:23.303Z,89.21
2018-12-21T01:42:28.261Z,89.14
2018-12-21T01:47:33.153Z,89.45
2018-12-21T01:52:38.043Z,89.61
2018-12-21T01:57:42.852Z,89.21
2018-12-21T02:02:47.591Z,89.87
2018-12-21T02:07:52.464Z,89.64
2018-12-21T02:12:57.364Z,89.21
2018-12-21T02:18:02.249Z,89.69
2018-12-21T02:23:19.599Z,89.41
2018-12-21T02:28:24.199Z,89.57
2018-12-21T02:33:29.049Z,89.28
2018-12-21T02:38:34.029Z,89.69
2018-12-21T02:43:38.890Z,89.25
2018-12-21T02:48:43.635Z,89.41
2018-12-21T02:54:00.139Z,89.79
2018-12-21T02:59:05.191Z,89.62
2018-12-21T03:04:10.245Z,89.12
2018-12-21T03:09:15.509Z,89.25
2018-12-21T03:19:58.424Z,89.57
2018-12-21T03:25:14.734Z,89.21
2018-12-21T03:30:19.494Z,89.40
2018-12-21T03:35:24.547Z,89.30
2018-12-21T03:40:29.499Z,89.43
2018-12-21T03:45:34.400Z,89.28
2018-12-21T03:50:39.234Z,89.56
2018-12-21T03:55:44.094Z,89.37
2018-12-21T04:00:48.934Z,89.42
2018-12-21T04:05:53.894Z,89.39
2018-12-21T04:10:58.775Z,89.74
2018-12-21T04:16:03.711Z,89.52
2018-12-21T04:21:08.545Z,89.21
2018-12-21T04:26:13.519Z,89.07
2018-12-21T04:31:18.444Z,88.89
2018-12-21T04:36:23.283Z,88.69
2018-12-21T04:41:28.244Z,88.89
2018-12-21T04:46:33.096Z,89.01
2018-12-21T04:51:37.954Z,88.90
2018-12-21T04:56:42.844Z,88.62
2018-12-21T05:01:47.730Z,88.88
2018-12-21T05:06:52.678Z,88.42
2018-12-21T05:11:57.988Z,88.71
2018-12-21T05:17:02.999Z,88.69
2018-12-21T05:22:07.894Z,88.26
2018-12-21T05:27:12.703Z,88.08
2018-12-21T05:32:17.654Z,88.20
2018-12-21T05:37:23.432Z,88.19
2018-12-21T05:42:28.450Z,87.74
2018-12-21T05:53:01.684Z,87.51
2018-12-21T05:58:06.600Z,87.51
2018-12-21T06:03:11.635Z,87.77
2018-12-21T06:08:16.453Z,87.51
2018-12-21T06:13:21.239Z,87.71
2018-12-21T06:18:26.079Z,87.25
2018-12-21T06:23:30.924Z,87.46
2018-12-21T06:28:35.771Z,87.33
2018-12-21T06:33:40.628Z,86.67
2018-12-21T06:38:45.459Z,86.76
2018-12-21T06:43:50.421Z,86.56
2018-12-21T06:48:55.274Z,85.81
2018-12-21T06:54:00.070Z,85.77
2018-12-21T06:59:04.866Z,85.70
2018-12-21T07:04:09.780Z,85.72
2018-12-21T07:09:14.738Z,85.03
2018-12-21T07:14:19.579Z,85.35
2018-12-21T07:19:24.459Z,85.37
2018-12-21T07:24:29.386Z,85.44
2018-12-21T07:29:34.204Z,85.10
2018-12-21T07:34:39.070Z,85.23
2018-12-21T07:39:44.036Z,85.49
2018-12-21T07:44:49.098Z,85.23
2018-12-21T08:06:20.063Z,85.22
2018-12-21T08:11:24.863Z,85.10
2018-12-21T08:16:29.879Z,85.33
2018-12-21T08:21:34.848Z,84.81
2018-12-21T08:26:39.708Z,84.94
2018-12-21T08:37:07.333Z,85.17
2018-12-21T08:42:12.173Z,85.06
2018-12-21T08:47:17.238Z,84.59
2018-12-21T08:52:23.263Z,84.76
2018-12-21T08:57:28.138Z,84.49
2018-12-21T09:02:33.055Z,84.30
2018-12-21T09:07:37.848Z,84.17
2018-12-21T09:12:42.690Z,84.56
2018-12-21T09:17:47.649Z,84.21
2018-12-21T09:22:52.655Z,84.09
2018-12-21T09:27:57.552Z,83.52
2018-12-21T09:33:02.478Z,83.19
2018-12-21T09:38:07.283Z,83.11
2018-12-21T09:43:11.993Z,82.79
2018-12-21T09:48:17.045Z,82.62
2018-12-21T09:53:21.857Z,82.11
2018-12-21T09:58:26.792Z,82.50
2018-12-21T10:03:31.697Z,81.41
2018-12-21T10:08:36.471Z,81.78
2018-12-21T10:13:41.398Z,81.75
2018-12-21T10:18:46.348Z,81.99
2018-12-21T10:23:52.167Z,81.88
2018-12-21T10:28:57.022Z,81.87
2018-12-21T10:34:01.862Z,81.46
2018-12-21T10:39:08.332Z,81.54
2018-12-21T10:44:13.288Z,81.71
2018-12-21T10:49:18.338Z,82.04
2018-12-21T10:54:26.995Z,81.45
2018-12-21T10:59:30.953Z,81.39
2018-12-21T11:04:35.861Z,80.09
2018-12-21T11:09:40.642Z,80.09
2018-12-21T11:14:45.392Z,80.04
2018-12-21T11:19:50.158Z,79.34
2018-12-21T11:24:54.952Z,79.65
2018-12-21T11:29:59.867Z,78.85
2018-12-21T11:35:04.846Z,78.04
2018-12-21T11:40:09.937Z,78.28
2018-12-21T11:50:53.555Z,79.46
2018-12-21T11:55:58.400Z,79.70
2018-12-21T12:01:03.310Z,78.86
2018-12-21T12:06:08.205Z,78.80
2018-12-21T12:11:13.124Z,79.28
2018-12-21T12:16:18.045Z,78.92
2018-12-21T12:21:23.965Z,79.17
2018-12-21T12:26:28.995Z,78.04
2018-12-21T12:31:34.026Z,77.41
2018-12-21T12:36:38.844Z,76.68
2018-12-21T12:41:43.786Z,76.81
2018-12-21T12:46:48.835Z,76.24
2018-12-21T12:51:53.875Z,76.28
2018-12-21T12:56:58.816Z,76.85
2018-12-21T13:02:03.654Z,77.92
2018-12-21T13:07:08.550Z,79.02
2018-12-21T13:12:13.345Z,79.10
2018-12-21T13:17:18.250Z,80.28
2018-12-21T13:22:23.245Z,81.13
2018-12-21T13:27:28.085Z,81.42
2018-12-21T13:32:33.134Z,81.36
2018-12-21T13:37:38.065Z,81.75
2018-12-21T13:42:42.873Z,81.76
2018-12-21T13:47:47.866Z,81.40
2018-12-21T13:52:52.860Z,81.43
2018-12-21T13:57:57.921Z,81.63
2018-12-21T14:03:02.900Z,82.11
2018-12-21T14:08:07.940Z,81.79
2018-12-21T14:13:12.866Z,81.97
2018-12-21T14:18:17.801Z,81.51
2018-12-21T14:23:23.995Z,81.47
2018-12-21T14:28:28.908Z,81.37
2018-12-21T14:33:33.681Z,82.10
2018-12-21T14:38:38.469Z,82.06
2018-12-21T14:43:43.335Z,81.98
2018-12-21T14:48:48.240Z,82.02
2018-12-21T14:53:53.270Z,82.40
2018-12-21T14:58:58.310Z,82.46
2018-12-21T15:04:03.231Z,82.70
2018-12-21T15:09:08.785Z,82.86
2018-12-21T15:14:13.526Z,83.52
2018-12-21T15:19:18.400Z,83.55
2018-12-21T15:24:23.325Z,83.45
2018-12-21T15:29:28.211Z,84.11
2018-12-21T15:34:33.142Z,83.70
2018-12-21T15:39:38.059Z,83.93
2018-12-21T15:44:43.031Z,84.47
2018-12-21T15:49:47.821Z,84.70
2018-12-21T15:54:52.711Z,84.60
2018-12-21T15:59:57.765Z,84.96
2018-12-21T16:05:02.702Z,84.85
2018-12-21T16:10:09.306Z,84.69
2018-12-21T16:15:14.121Z,84.42
2018-12-21T16:20:18.896Z,84.56
2018-12-21T16:25:25.101Z,84.65
2018-12-21T16:30:29.946Z,84.58
2018-12-21T16:35:34.788Z,84.43
2018-12-21T16:40:39.628Z,84.35
2018-12-21T16:45:44.468Z,84.67
2018-12-21T16:50:49.307Z,84.77
2018-12-21T16:55:54.207Z,84.50
2018-12-21T17:00:58.989Z,85.07
2018-12-21T17:06:03.944Z,84.79
2018-12-21T17:16:46.028Z,84.85
2018-12-21T17:27:29.169Z,85.54
2018-12-21T17:38:02.388Z,85.44
2018-12-21T17:43:07.192Z,85.52
2018-12-21T17:48:12.069Z,85.69
2018-12-21T17:53:16.909Z,86.17
2018-12-21T17:58:22.029Z,85.74
2018-12-21T18:03:32.606Z,86.05
2018-12-21T18:08:37.441Z,86.33
2018-12-21T18:13:42.391Z,86.24
2018-12-21T18:18:47.330Z,86.16
2018-12-21T18:23:52.228Z,86.40
2018-12-21T18:28:57.088Z,86.42
2018-12-21T18:34:04.836Z,86.92
2018-12-21T18:39:10.109Z,86.73
2018-12-21T18:44:14.909Z,86.95
2018-12-21T18:49:19.868Z,86.56
2018-12-21T18:54:26.448Z,86.99
2018-12-21T18:59:31.269Z,87.14
2018-12-21T19:04:36.097Z,87.22
2018-12-21T19:09:41.012Z,87.17
2018-12-21T19:14:45.730Z,87.02
2018-12-21T19:19:50.689Z,87.20
2018-12-21T19:24:55.609Z,87.40
2018-12-21T19:30:00.636Z,87.26
2018-12-21T19:35:05.790Z,86.78
2018-12-21T19:40:11.970Z,87.21
2018-12-21T19:45:16.812Z,86.77
2018-12-21T19:50:21.709Z,86.77
2018-12-21T19:55:34.390Z,87.19
2018-12-21T20:06:19.529Z,86.94
2018-12-21T20:11:24.388Z,86.46
2018-12-21T20:16:29.409Z,87.02
2018-12-21T20:21:34.348Z,86.50
2018-12-21T20:26:42.230Z,86.85
2018-12-21T20:31:47.530Z,87.01
2018-12-21T20:36:52.471Z,86.58
2018-12-21T20:41:57.640Z,86.83
2018-12-21T20:47:04.568Z,86.65
2018-12-21T20:52:09.593Z,86.62
2018-12-21T20:57:21.842Z,86.33
2018-12-21T21:02:22.737Z,86.62
2018-12-21T21:07:27.556Z,86.56
2018-12-21T21:12:32.456Z,86.71
2018-12-21T21:17:37.378Z,86.51
2018-12-21T21:22:59.863Z,86.79
2018-12-21T21:28:04.767Z,86.63
2018-12-21T21:33:09.663Z,86.34
2018-12-21T21:38:14.602Z,86.40
2018-12-21T21:43:21.298Z,86.55
2018-12-21T21:48:26.118Z,86.57
2018-12-21T21:53:30.937Z,86.74
2018-12-21T21:58:35.748Z,86.19
2018-12-21T22:03:40.537Z,86.31
2018-12-21T22:08:45.552Z,86.43
2018-12-21T22:13:50.505Z,86.45
2018-12-21T22:18:55.568Z,86.41
2018-12-21T22:24:00.617Z,86.34
2018-12-21T22:29:05.591Z,86.30
2018-12-21T22:34:10.547Z,85.94
2018-12-21T22:39:15.362Z,85.89
2018-12-21T22:44:20.206Z,86.23
2018-12-21T22:49:25.641Z,86.00
2018-12-21T22:54:30.556Z,85.93
2018-12-21T22:59:35.517Z,86.26
2018-12-21T23:04:41.351Z,86.03
2018-12-21T23:09:46.197Z,86.12
2018-12-21T23:14:51.060Z,86.25
2018-12-21T23:19:55.938Z,86.03
2018-12-21T23:25:01.015Z,86.16
2018-12-21T23:30:07.080Z,86.00
2018-12-21T23:35:11.966Z,85.95
2018-12-21T23:40:16.800Z,85.98
2018-12-21T23:45:21.716Z,86.35
2018-12-21T23:50:26.611Z,86.39
2018-12-21T23:55:31.531Z,86.10
